createdAt,value
2018-08-13T05:32:44.487Z,15.90
2018-08-13T05:35:15.705Z,16.00
2018-08-13T05:37:44.271Z,16.10
2018-08-13T05:40:12.507Z,16.50
2018-08-13T05:42:43.470Z,16.60
2018-08-13T05:45:11.671Z,16.70
2018-08-13T05:47:40.457Z,16.90
2018-08-13T05:50:09.924Z,17.10
2018-08-13T05:52:38.202Z,17.10
2018-08-13T05:55:07.314Z,17.00
2018-08-13T05:57:35.515Z,17.10
2018-08-13T06:00:05.397Z,17.10
2018-08-13T06:02:33.595Z,17.00
2018-08-13T06:05:01.800Z,16.80
2018-08-13T06:07:36.687Z,16.60
2018-08-13T06:10:07.902Z,16.70
2018-08-13T06:12:36.262Z,16.90
2018-08-13T06:15:07.082Z,16.90
2018-08-13T06:17:35.729Z,16.90
2018-08-13T06:20:04.993Z,16.80
2018-08-13T06:22:33.171Z,16.80
2018-08-13T06:25:01.385Z,16.90
2018-08-13T06:27:29.608Z,16.80
2018-08-13T06:29:57.945Z,16.70
2018-08-13T06:32:26.130Z,16.10
2018-08-13T06:34:54.336Z,15.40
2018-08-13T06:37:22.680Z,14.90
2018-08-13T06:39:50.863Z,14.60
2018-08-13T06:42:19.138Z,14.40
2018-08-13T06:44:47.355Z,14.30
2018-08-13T06:47:15.547Z,14.10
2018-08-13T06:49:43.786Z,14.20
2018-08-13T06:52:12.033Z,14.10
2018-08-13T06:54:40.480Z,14.20
2018-08-13T06:57:08.703Z,14.30
2018-08-13T06:59:36.900Z,14.30
2018-08-13T07:02:05.456Z,14.40
2018-08-13T07:04:33.690Z,14.60
2018-08-13T07:07:01.987Z,14.80
2018-08-13T07:09:30.214Z,14.90
2018-08-13T07:11:58.402Z,15.00
2018-08-13T07:14:26.601Z,15.10
2018-08-13T07:16:54.776Z,15.20
2018-08-13T07:19:22.968Z,15.20
2018-08-13T07:21:51.711Z,15.40
2018-08-13T07:24:19.891Z,15.50
2018-08-13T07:26:48.070Z,15.70
2018-08-13T07:29:16.292Z,15.70
2018-08-13T07:31:44.481Z,15.80
2018-08-13T07:34:12.660Z,15.80
2018-08-13T07:36:40.875Z,15.80
2018-08-13T07:39:10.106Z,15.80
2018-08-13T07:41:38.493Z,15.80
2018-08-13T07:44:07.247Z,15.90
2018-08-13T07:46:35.592Z,15.90
2018-08-13T07:49:03.839Z,15.90
2018-08-13T07:51:32.091Z,16.00
2018-08-13T07:54:00.285Z,16.10
2018-08-13T07:56:29.313Z,16.20
2018-08-13T07:58:57.519Z,16.20
2018-08-13T08:01:25.748Z,16.20
2018-08-13T08:03:54.841Z,16.30
2018-08-13T08:06:23.080Z,16.40
2018-08-13T08:08:52.711Z,16.60
2018-08-13T08:11:21.835Z,16.50
2018-08-13T08:13:50.076Z,16.50
2018-08-13T08:16:18.348Z,16.60
2018-08-13T08:18:46.565Z,16.50
2018-08-13T08:21:14.819Z,16.50
2018-08-13T08:23:43.917Z,16.40
2018-08-13T08:26:12.187Z,16.50
2018-08-13T08:28:42.222Z,16.60
2018-08-13T08:31:10.394Z,16.80
2018-08-13T08:33:38.599Z,16.80
2018-08-13T08:36:06.975Z,16.70
2018-08-13T08:38:35.159Z,16.80
2018-08-13T08:41:04.363Z,16.90
2018-08-13T08:43:33.647Z,16.90
2018-08-13T08:46:01.993Z,16.90
2018-08-13T08:48:30.515Z,17.00
2018-08-13T08:50:59.601Z,17.00
2018-08-13T08:53:28.180Z,17.00
2018-08-13T08:55:56.339Z,17.00
2018-08-13T08:58:24.539Z,17.00
2018-08-13T09:00:53.654Z,17.10
2018-08-13T09:03:21.954Z,17.20
2018-08-13T09:05:50.226Z,17.20
2018-08-13T09:08:18.921Z,17.20
2018-08-13T09:10:47.151Z,17.20
2018-08-13T09:13:16.385Z,17.20
2018-08-13T09:15:44.646Z,17.40
2018-08-13T09:18:24.331Z,17.50
2018-08-13T09:21:03.902Z,17.50
2018-08-13T09:23:43.675Z,17.70
2018-08-13T09:26:23.292Z,18.00
2018-08-13T09:29:03.063Z,18.10
2018-08-13T09:31:54.676Z,18.20
2018-08-13T09:34:36.039Z,18.30
2018-08-13T09:37:04.237Z,18.30
2018-08-13T09:39:32.439Z,18.30
2018-08-13T09:42:00.635Z,18.20
2018-08-13T09:44:28.852Z,18.20
2018-08-13T09:46:57.061Z,18.10
2018-08-13T09:49:25.307Z,18.20
2018-08-13T09:51:53.531Z,18.30
2018-08-13T09:54:21.883Z,18.30
2018-08-13T09:56:51.008Z,18.40
2018-08-13T09:59:19.360Z,18.20
2018-08-13T10:01:47.562Z,18.10
2018-08-13T10:04:15.807Z,18.00
2018-08-13T10:06:44.043Z,18.10
2018-08-13T10:09:12.230Z,18.20
2018-08-13T10:11:40.797Z,18.30
2018-08-13T10:14:09.887Z,18.30
2018-08-13T10:16:38.094Z,18.50
2018-08-13T10:19:06.327Z,18.60
2018-08-13T10:21:34.575Z,18.60
2018-08-13T10:24:09.454Z,18.70
2018-08-13T10:26:37.695Z,18.50
2018-08-13T10:29:06.317Z,18.40
2018-08-13T10:31:34.547Z,18.20
2018-08-13T10:34:02.776Z,18.20
2018-08-13T10:36:31.017Z,18.00
2018-08-13T10:38:59.215Z,18.00
2018-08-13T10:41:27.423Z,18.10
2018-08-13T10:43:55.653Z,18.00
2018-08-13T10:46:24.944Z,17.90
2018-08-13T10:48:53.151Z,17.90
2018-08-13T10:51:21.367Z,17.80
2018-08-13T10:53:49.609Z,17.80
2018-08-13T10:56:17.863Z,17.90
2018-08-13T10:58:46.035Z,17.90
2018-08-13T11:01:14.588Z,17.80
2018-08-13T11:03:42.835Z,17.80
2018-08-13T11:06:11.075Z,17.90
2018-08-13T11:08:39.459Z,17.90
2018-08-13T11:11:07.773Z,17.80
2018-08-13T11:13:36.135Z,17.90
2018-08-13T11:16:04.309Z,17.90
2018-08-13T11:18:32.684Z,18.10
2018-08-13T11:21:01.007Z,18.20
2018-08-13T11:23:29.480Z,18.20
2018-08-13T11:25:57.705Z,18.20
2018-08-13T11:28:25.941Z,18.30
2018-08-13T11:30:54.196Z,18.40
2018-08-13T11:33:22.451Z,18.40
2018-08-13T11:35:50.640Z,18.30
2018-08-13T11:38:18.897Z,18.20
2018-08-13T11:40:47.130Z,18.20
2018-08-13T11:43:16.555Z,18.20
2018-08-13T11:45:44.837Z,18.00
2018-08-13T11:48:13.090Z,18.00
2018-08-13T11:50:41.324Z,17.90
2018-08-13T11:53:09.510Z,17.90
2018-08-13T11:55:37.760Z,18.00
2018-08-13T11:58:05.997Z,18.00
2018-08-13T12:00:34.252Z,18.10
2018-08-13T12:03:02.473Z,18.20
2018-08-13T12:05:30.692Z,18.30
2018-08-13T12:07:58.952Z,18.40
2018-08-13T12:10:27.196Z,18.50
2018-08-13T12:12:55.462Z,18.60
2018-08-13T12:15:23.675Z,18.70
2018-08-13T12:17:51.908Z,18.70
2018-08-13T12:20:21.204Z,18.70
2018-08-13T12:22:49.680Z,18.70
2018-08-13T12:25:19.867Z,18.80
2018-08-13T12:27:48.083Z,18.80
2018-08-13T12:30:16.516Z,18.80
2018-08-13T12:32:44.721Z,18.90
2018-08-13T12:35:12.982Z,19.00
2018-08-13T12:37:41.711Z,19.00
2018-08-13T12:40:10.385Z,19.10
2018-08-13T12:42:39.203Z,19.10
2018-08-13T12:45:09.246Z,19.10
2018-08-13T12:47:37.481Z,19.20
2018-08-13T12:50:08.320Z,19.40
2018-08-13T12:52:36.556Z,19.50
2018-08-13T12:55:05.689Z,19.70
2018-08-13T12:57:33.885Z,19.80
2018-08-13T13:00:02.462Z,20.10
2018-08-13T13:02:31.697Z,20.20
2018-08-13T13:04:59.904Z,20.30
2018-08-13T13:07:28.121Z,20.50
2018-08-13T13:09:58.348Z,20.70
2018-08-13T13:12:26.554Z,20.90
2018-08-13T13:14:55.939Z,21.00
2018-08-13T13:17:24.275Z,21.10
2018-08-13T13:19:52.997Z,21.30
2018-08-13T13:22:21.211Z,21.50
2018-08-13T13:24:49.445Z,22.00
2018-08-13T13:27:17.679Z,22.90
2018-08-13T13:29:46.534Z,23.10
2018-08-13T13:32:14.740Z,23.10
2018-08-13T13:34:42.989Z,22.80
2018-08-13T13:37:11.301Z,22.90
2018-08-13T13:39:40.341Z,23.00
2018-08-13T13:42:09.722Z,22.90
2018-08-13T13:44:38.620Z,23.00
2018-08-13T13:47:12.033Z,22.90
2018-08-13T13:49:40.251Z,22.90
2018-08-13T13:52:10.465Z,22.80
2018-08-13T13:54:38.709Z,22.80
2018-08-13T13:57:06.979Z,22.90
2018-08-13T13:59:35.204Z,23.40
2018-08-13T14:02:03.468Z,23.70
2018-08-13T14:04:31.775Z,23.60
2018-08-13T14:07:00.019Z,23.20
2018-08-13T14:09:28.356Z,22.80
2018-08-13T14:11:56.561Z,22.50
2018-08-13T14:14:25.562Z,22.10
2018-08-13T14:16:53.880Z,22.00
2018-08-13T14:19:23.126Z,21.80
2018-08-13T14:21:52.038Z,21.60
2018-08-13T14:24:20.310Z,21.60
2018-08-13T14:26:48.603Z,21.50
2018-08-13T14:29:16.876Z,21.60
2018-08-13T14:31:45.148Z,21.90
2018-08-13T14:34:13.376Z,22.00
2018-08-13T14:36:42.489Z,22.00
2018-08-13T14:39:11.878Z,22.00
2018-08-13T14:41:40.133Z,21.90
2018-08-13T14:44:10.436Z,21.70
2018-08-13T14:46:38.714Z,21.50
2018-08-13T14:49:07.098Z,21.40
2018-08-13T14:51:35.439Z,21.20
2018-08-13T14:54:04.386Z,21.20
2018-08-13T14:56:38.894Z,21.10
2018-08-13T14:59:07.319Z,21.20
2018-08-13T15:01:35.590Z,21.30
2018-08-13T15:04:04.143Z,21.50
2018-08-13T15:06:32.387Z,21.80
2018-08-13T15:09:00.667Z,22.40
2018-08-13T15:11:34.559Z,22.80
2018-08-13T15:14:02.948Z,22.60
2018-08-13T15:16:31.331Z,22.30
2018-08-13T15:19:00.795Z,21.90
2018-08-13T15:21:30.119Z,21.60
2018-08-13T15:23:58.320Z,21.20
2018-08-13T15:26:26.715Z,20.80
2018-08-13T15:28:54.954Z,20.60
2018-08-13T15:31:23.254Z,20.50
2018-08-13T15:33:52.645Z,20.20
2018-08-13T15:36:20.907Z,20.00
2018-08-13T15:38:49.172Z,20.10
2018-08-13T15:41:17.591Z,20.40
2018-08-13T15:43:48.599Z,21.20
2018-08-13T15:46:17.432Z,21.80
2018-08-13T15:48:47.578Z,22.50
2018-08-13T15:51:16.604Z,22.50
2018-08-13T15:53:44.833Z,22.20
2018-08-13T15:56:13.055Z,22.10
2018-08-13T15:58:41.287Z,22.40
2018-08-13T16:01:10.534Z,23.20
2018-08-13T16:03:38.775Z,23.60
2018-08-13T16:06:07.023Z,23.90
2018-08-13T16:08:35.231Z,24.20
2018-08-13T16:11:03.485Z,24.30
2018-08-13T16:13:31.737Z,24.60
2018-08-13T16:15:59.970Z,24.70
2018-08-13T16:18:28.202Z,24.90
2018-08-13T16:20:56.493Z,25.10
2018-08-13T16:23:24.688Z,25.30
2018-08-13T16:25:52.927Z,25.70
2018-08-13T16:28:21.163Z,25.70
2018-08-13T16:30:49.726Z,25.80
2018-08-13T16:33:18.023Z,26.20
2018-08-13T16:35:46.296Z,26.50
2018-08-13T16:38:14.555Z,26.70
2018-08-13T16:40:42.812Z,26.90
2018-08-13T16:43:11.781Z,26.50
2018-08-13T16:45:40.060Z,26.20
2018-08-13T16:48:08.284Z,25.80
2018-08-13T16:50:39.466Z,25.20
2018-08-13T16:53:08.013Z,24.70
2018-08-13T16:55:36.255Z,24.30
2018-08-13T16:58:04.509Z,23.90
2018-08-13T17:00:33.002Z,23.50
2018-08-13T17:03:01.619Z,23.50
2018-08-13T17:05:31.516Z,23.50
2018-08-13T17:07:59.805Z,23.60
2018-08-13T17:10:31.301Z,23.60
2018-08-13T17:13:00.613Z,23.60
2018-08-13T17:18:13.662Z,23.60
2018-08-13T17:20:42.452Z,23.70
2018-08-13T17:23:10.859Z,23.60
2018-08-13T17:25:39.031Z,23.60
2018-08-13T17:28:07.274Z,23.30
2018-08-13T17:30:35.452Z,22.70
2018-08-13T17:33:03.770Z,22.30
2018-08-13T17:35:34.934Z,22.10
2018-08-13T17:38:04.491Z,22.10
2018-08-13T17:40:33.016Z,22.00
2018-08-13T17:43:01.495Z,21.90
2018-08-13T17:45:29.563Z,21.90
2018-08-13T17:47:59.547Z,21.70
2018-08-13T17:50:27.841Z,21.70
2018-08-13T17:52:57.424Z,21.50
2018-08-13T17:55:25.697Z,21.40
2018-08-13T17:57:55.220Z,21.40
2018-08-13T18:00:24.675Z,21.40
2018-08-13T18:02:53.134Z,21.30
2018-08-13T18:05:23.219Z,21.10
2018-08-13T18:07:52.391Z,20.30
2018-08-13T18:10:25.545Z,18.90
2018-08-13T18:12:55.528Z,18.10
2018-08-13T18:15:25.729Z,17.70
2018-08-13T18:17:54.058Z,17.20
2018-08-13T18:20:23.584Z,16.80
2018-08-13T18:22:51.843Z,16.60
2018-08-13T18:25:20.084Z,16.50
2018-08-13T18:27:50.206Z,16.50
2018-08-13T18:30:25.459Z,16.50
2018-08-13T18:32:54.882Z,16.50
2018-08-13T18:35:23.261Z,16.50
2018-08-13T18:37:51.514Z,16.40
2018-08-13T18:40:27.457Z,16.40
2018-08-13T18:42:57.085Z,16.40
2018-08-13T18:45:27.508Z,16.40
2018-08-13T18:47:56.896Z,16.50
2018-08-13T18:50:26.631Z,16.50
2018-08-13T18:52:54.866Z,16.50
2018-08-13T18:55:24.911Z,16.50
2018-08-13T18:57:53.601Z,16.50
2018-08-13T19:00:25.372Z,16.40
2018-08-13T19:02:53.979Z,16.30
2018-08-13T19:05:23.730Z,16.30
2018-08-13T19:07:53.613Z,16.30
2018-08-13T19:10:24.021Z,16.20
2018-08-13T19:12:54.005Z,16.20
2018-08-13T19:15:26.122Z,16.20
2018-08-13T19:17:55.380Z,16.20
2018-08-13T19:20:25.131Z,16.10
2018-08-13T19:22:55.589Z,16.10
2018-08-13T19:25:27.206Z,16.10
2018-08-13T19:27:57.735Z,16.20
2018-08-13T19:30:27.798Z,16.20
2018-08-13T19:32:57.225Z,16.20
2018-08-13T19:35:26.559Z,16.30
2018-08-13T19:37:56.286Z,16.20
2018-08-13T19:40:27.292Z,16.20
2018-08-13T19:42:58.217Z,16.10
2018-08-13T19:45:28.207Z,16.00
2018-08-13T19:47:59.579Z,16.10
2018-08-13T19:50:31.117Z,16.10
2018-08-13T19:53:01.291Z,16.10
2018-08-13T19:55:30.788Z,16.00
2018-08-13T19:58:00.241Z,16.00
2018-08-13T20:00:30.385Z,15.80
2018-08-13T20:02:59.694Z,15.90
2018-08-13T20:05:28.559Z,15.90
2018-08-13T20:07:56.891Z,15.80
2018-08-13T20:10:25.330Z,15.80
2018-08-13T20:12:53.641Z,15.80
2018-08-13T20:15:22.163Z,15.80
2018-08-13T20:17:51.557Z,15.80
2018-08-13T20:20:23.743Z,15.70
2018-08-13T20:22:51.958Z,15.70
2018-08-13T20:25:20.802Z,15.60
2018-08-13T20:27:52.526Z,15.60
2018-08-13T20:30:22.120Z,15.60
2018-08-13T20:32:51.047Z,15.50
2018-08-13T20:35:19.343Z,15.40
2018-08-13T20:37:47.614Z,15.40
2018-08-13T20:40:17.727Z,15.40
2018-08-13T20:42:46.657Z,15.40
2018-08-13T20:45:16.556Z,15.50
2018-08-13T20:47:45.275Z,15.50
2018-08-13T20:50:15.382Z,15.50
2018-08-13T20:52:44.455Z,15.60
2018-08-13T20:55:15.449Z,15.70
2018-08-13T20:57:44.291Z,15.50
2018-08-13T21:00:13.580Z,15.30
2018-08-13T21:02:42.420Z,15.30
2018-08-13T21:05:10.873Z,15.20
2018-08-13T21:07:39.134Z,15.30
2018-08-13T21:10:10.636Z,15.20
2018-08-13T21:12:39.596Z,15.10
2018-08-13T21:15:10.530Z,15.00
2018-08-13T21:17:39.260Z,14.90
2018-08-13T21:20:08.347Z,14.90
2018-08-13T21:22:37.357Z,14.90
2018-08-13T21:25:08.075Z,14.80
2018-08-13T21:27:36.492Z,14.80
2018-08-13T21:30:05.279Z,14.80
2018-08-13T21:32:33.708Z,14.90
2018-08-13T21:35:02.016Z,14.90
2018-08-13T21:37:31.569Z,14.80
2018-08-13T21:40:00.013Z,14.90
2018-08-13T21:42:28.436Z,14.90
2018-08-13T21:44:56.800Z,14.80
2018-08-13T21:47:25.258Z,15.00
2018-08-13T21:49:53.505Z,14.90
2018-08-13T21:52:21.780Z,14.90
2018-08-13T21:54:50.035Z,14.90
2018-08-13T21:57:18.347Z,14.90
2018-08-13T21:59:46.626Z,14.90
2018-08-13T22:02:15.482Z,14.90
2018-08-13T22:04:44.195Z,14.90
2018-08-13T22:07:12.607Z,15.00
2018-08-13T22:09:41.736Z,15.10
2018-08-13T22:12:15.321Z,15.10
2018-08-13T22:14:43.609Z,15.00
2018-08-13T22:17:11.835Z,15.00
2018-08-13T22:19:40.310Z,15.00
2018-08-13T22:22:08.583Z,15.10
2018-08-13T22:24:48.041Z,15.10
2018-08-13T22:27:16.468Z,15.10
2018-08-13T22:29:44.733Z,15.10
2018-08-13T22:32:13.995Z,15.10
2018-08-13T22:34:42.776Z,15.10
2018-08-13T22:37:11.772Z,15.20
2018-08-13T22:39:40.068Z,15.20
2018-08-13T22:42:08.447Z,15.30
2018-08-13T22:44:36.825Z,15.30
2018-08-13T22:47:05.217Z,15.50
2018-08-13T22:49:33.488Z,15.70
2018-08-13T22:52:01.800Z,15.70
2018-08-13T22:54:30.096Z,15.90
2018-08-13T22:56:58.437Z,15.80
2018-08-13T22:59:26.823Z,15.90
